sensor_id;sensor_type;location;lat;lon;timestamp;P1;durP1;ratioP1;P2;durP2;ratioP2
68633;SDS011;55625;47.072;22.192;2022-10-01T00:02:11;9.43;;;4.47;;
68633;SDS011;55625;47.072;22.192;2022-10-01T00:04:37;12.90;;;4.63;;
68633;SDS011;55625;47.072;22.192;2022-10-01T00:07:04;13.20;;;5.05;;
68633;SDS011;55625;47.072;22.192;2022-10-01T00:09:34;9.73;;;4.35;;
68633;SDS011;55625;47.072;22.192;2022-10-01T00:12:00;9.50;;;4.30;;
68633;SDS011;55625;47.072;22.192;2022-10-01T00:14:26;8.25;;;4.28;;
68633;SDS011;55625;47.072;22.192;2022-10-01T00:16:53;8.40;;;4.32;;
68633;SDS011;55625;47.072;22.192;2022-10-01T00:19:19;10.65;;;4.75;;
68633;SDS011;55625;47.072;22.192;2022-10-01T00:21:46;11.15;;;5.63;;
68633;SDS011;55625;47.072;22.192;2022-10-01T00:24:12;14.23;;;5.10;;
68633;SDS011;55625;47.072;22.192;2022-10-01T00:26:38;12.45;;;6.00;;
68633;SDS011;55625;47.072;22.192;2022-10-01T00:29:06;16.27;;;5.07;;
68633;SDS011;55625;47.072;22.192;2022-10-01T00:31:37;10.40;;;4.97;;
68633;SDS011;55625;47.072;22.192;2022-10-01T00:34:03;9.52;;;4.53;;
68633;SDS011;55625;47.072;22.192;2022-10-01T00:36:30;8.38;;;4.38;;
68633;SDS011;55625;47.072;22.192;2022-10-01T00:38:57;11.18;;;5.15;;
68633;SDS011;55625;47.072;22.192;2022-10-01T00:41:25;15.05;;;5.82;;
68633;SDS011;55625;47.072;22.192;2022-10-01T00:43:55;16.87;;;6.23;;
68633;SDS011;55625;47.072;22.192;2022-10-01T00:46:31;12.20;;;4.80;;
68633;SDS011;55625;47.072;22.192;2022-10-01T00:49:14;10.93;;;4.22;;
68633;SDS011;55625;47.072;22.192;2022-10-01T00:51:46;12.38;;;5.22;;
68633;SDS011;55625;47.072;22.192;2022-10-01T00:54:23;10.80;;;4.68;;
68633;SDS011;55625;47.072;22.192;2022-10-01T00:56:56;8.23;;;4.93;;
68633;SDS011;55625;47.072;22.192;2022-10-01T00:59:25;12.57;;;5.55;;
68633;SDS011;55625;47.072;22.192;2022-10-01T01:01:51;12.57;;;5.20;;
68633;SDS011;55625;47.072;22.192;2022-10-01T01:04:18;10.48;;;4.63;;
68633;SDS011;55625;47.072;22.192;2022-10-01T01:06:49;11.20;;;5.05;;
68633;SDS011;55625;47.072;22.192;2022-10-01T01:09:27;15.50;;;4.80;;
68633;SDS011;55625;47.072;22.192;2022-10-01T01:15:00;9.35;;;4.57;;
68633;SDS011;55625;47.072;22.192;2022-10-01T01:23:29;10.13;;;4.53;;
68633;SDS011;55625;47.072;22.192;2022-10-01T01:28:51;11.57;;;4.75;;
68633;SDS011;55625;47.072;22.192;2022-10-01T01:31:31;10.15;;;4.15;;
68633;SDS011;55625;47.072;22.192;2022-10-01T01:34:05;7.88;;;4.32;;
68633;SDS011;55625;47.072;22.192;2022-10-01T01:36:36;10.87;;;4.70;;
68633;SDS011;55625;47.072;22.192;2022-10-01T01:39:09;10.70;;;3.70;;
68633;SDS011;55625;47.072;22.192;2022-10-01T01:41:41;10.52;;;5.18;;
68633;SDS011;55625;47.072;22.192;2022-10-01T01:44:14;9.50;;;4.53;;
68633;SDS011;55625;47.072;22.192;2022-10-01T01:46:46;10.52;;;4.85;;
68633;SDS011;55625;47.072;22.192;2022-10-01T01:49:15;10.77;;;4.20;;
68633;SDS011;55625;47.072;22.192;2022-10-01T01:54:43;12.88;;;5.00;;
68633;SDS011;55625;47.072;22.192;2022-10-01T01:57:14;10.45;;;4.07;;
68633;SDS011;55625;47.072;22.192;2022-10-01T01:59:43;11.52;;;3.90;;
68633;SDS011;55625;47.072;22.192;2022-10-01T02:02:12;9.30;;;4.37;;
68633;SDS011;55625;47.072;22.192;2022-10-01T02:05:10;11.35;;;4.00;;
68633;SDS011;55625;47.072;22.192;2022-10-01T02:16:46;9.57;;;4.77;;
68633;SDS011;55625;47.072;22.192;2022-10-01T02:19:20;8.43;;;4.60;;
68633;SDS011;55625;47.072;22.192;2022-10-01T02:22:14;8.73;;;4.78;;
68633;SDS011;55625;47.072;22.192;2022-10-01T02:24:51;13.75;;;4.85;;
68633;SDS011;55625;47.072;22.192;2022-10-01T02:27:32;9.90;;;4.35;;
68633;SDS011;55625;47.072;22.192;2022-10-01T02:30:10;9.00;;;4.47;;
68633;SDS011;55625;47.072;22.192;2022-10-01T02:32:37;8.88;;;4.00;;
68633;SDS011;55625;47.072;22.192;2022-10-01T02:35:09;7.70;;;3.30;;
68633;SDS011;55625;47.072;22.192;2022-10-01T02:37:39;7.95;;;4.03;;
68633;SDS011;55625;47.072;22.192;2022-10-01T02:40:08;7.97;;;4.10;;
68633;SDS011;55625;47.072;22.192;2022-10-01T02:42:40;8.90;;;3.83;;
68633;SDS011;55625;47.072;22.192;2022-10-01T02:45:14;7.57;;;3.47;;
68633;SDS011;55625;47.072;22.192;2022-10-01T02:47:47;8.70;;;3.92;;
68633;SDS011;55625;47.072;22.192;2022-10-01T02:50:47;8.15;;;3.58;;
68633;SDS011;55625;47.072;22.192;2022-10-01T02:53:27;6.50;;;3.20;;
68633;SDS011;55625;47.072;22.192;2022-10-01T02:56:06;7.23;;;3.63;;
68633;SDS011;55625;47.072;22.192;2022-10-01T02:58:34;6.47;;;3.25;;
68633;SDS011;55625;47.072;22.192;2022-10-01T03:01:00;5.82;;;3.33;;
68633;SDS011;55625;47.072;22.192;2022-10-01T03:03:26;9.45;;;3.78;;
68633;SDS011;55625;47.072;22.192;2022-10-01T03:05:52;7.27;;;3.07;;
68633;SDS011;55625;47.072;22.192;2022-10-01T03:08:18;8.48;;;2.40;;
68633;SDS011;55625;47.072;22.192;2022-10-01T03:10:44;7.68;;;2.90;;
68633;SDS011;55625;47.072;22.192;2022-10-01T03:13:10;6.38;;;2.67;;
68633;SDS011;55625;47.072;22.192;2022-10-01T03:15:35;8.10;;;2.60;;
68633;SDS011;55625;47.072;22.192;2022-10-01T03:18:01;10.90;;;3.30;;
68633;SDS011;55625;47.072;22.192;2022-10-01T03:20:27;6.33;;;2.93;;
68633;SDS011;55625;47.072;22.192;2022-10-01T03:22:53;6.65;;;3.13;;
68633;SDS011;55625;47.072;22.192;2022-10-01T03:25:19;6.93;;;3.13;;
68633;SDS011;55625;47.072;22.192;2022-10-01T03:27:45;6.47;;;2.83;;
68633;SDS011;55625;47.072;22.192;2022-10-01T03:30:10;4.57;;;2.00;;
68633;SDS011;55625;47.072;22.192;2022-10-01T03:32:37;6.93;;;2.67;;
68633;SDS011;55625;47.072;22.192;2022-10-01T03:35:03;6.80;;;3.33;;
68633;SDS011;55625;47.072;22.192;2022-10-01T03:37:29;4.57;;;2.05;;
68633;SDS011;55625;47.072;22.192;2022-10-01T03:39:55;6.03;;;2.30;;
68633;SDS011;55625;47.072;22.192;2022-10-01T03:42:21;5.95;;;2.30;;
68633;SDS011;55625;47.072;22.192;2022-10-01T03:44:47;9.13;;;2.60;;
68633;SDS011;55625;47.072;22.192;2022-10-01T03:47:12;6.80;;;1.97;;
68633;SDS011;55625;47.072;22.192;2022-10-01T03:49:38;7.43;;;2.47;;
68633;SDS011;55625;47.072;22.192;2022-10-01T03:52:04;7.07;;;1.90;;
68633;SDS011;55625;47.072;22.192;2022-10-01T03:54:30;6.45;;;2.72;;
68633;SDS011;55625;47.072;22.192;2022-10-01T03:56:56;8.53;;;2.53;;
68633;SDS011;55625;47.072;22.192;2022-10-01T03:59:22;10.38;;;2.83;;
68633;SDS011;55625;47.072;22.192;2022-10-01T04:01:51;5.93;;;2.05;;
68633;SDS011;55625;47.072;22.192;2022-10-01T04:04:18;4.47;;;2.28;;
68633;SDS011;55625;47.072;22.192;2022-10-01T04:06:44;8.07;;;3.37;;
68633;SDS011;55625;47.072;22.192;2022-10-01T04:09:09;5.60;;;1.92;;
68633;SDS011;55625;47.072;22.192;2022-10-01T04:11:35;7.38;;;2.25;;
68633;SDS011;55625;47.072;22.192;2022-10-01T04:14:03;7.13;;;2.80;;
68633;SDS011;55625;47.072;22.192;2022-10-01T04:16:29;7.38;;;2.30;;
68633;SDS011;55625;47.072;22.192;2022-10-01T04:18:58;7.78;;;2.58;;
68633;SDS011;55625;47.072;22.192;2022-10-01T04:21:24;7.53;;;2.60;;
68633;SDS011;55625;47.072;22.192;2022-10-01T04:23:50;6.03;;;2.30;;
68633;SDS011;55625;47.072;22.192;2022-10-01T04:26:17;7.15;;;2.53;;
68633;SDS011;55625;47.072;22.192;2022-10-01T04:28:43;6.10;;;1.73;;
68633;SDS011;55625;47.072;22.192;2022-10-01T04:31:10;5.82;;;2.42;;
68633;SDS011;55625;47.072;22.192;2022-10-01T04:34:03;7.53;;;2.67;;
68633;SDS011;55625;47.072;22.192;2022-10-01T04:36:29;8.57;;;2.60;;
68633;SDS011;55625;47.072;22.192;2022-10-01T04:38:55;8.02;;;2.67;;
68633;SDS011;55625;47.072;22.192;2022-10-01T04:41:21;7.32;;;2.38;;
68633;SDS011;55625;47.072;22.192;2022-10-01T04:43:47;10.37;;;2.73;;
68633;SDS011;55625;47.072;22.192;2022-10-01T04:46:13;8.30;;;2.75;;
68633;SDS011;55625;47.072;22.192;2022-10-01T04:48:39;9.18;;;3.15;;
68633;SDS011;55625;47.072;22.192;2022-10-01T04:51:05;9.18;;;3.17;;
68633;SDS011;55625;47.072;22.192;2022-10-01T04:53:31;8.50;;;2.67;;
68633;SDS011;55625;47.072;22.192;2022-10-01T04:55:57;5.95;;;2.28;;
68633;SDS011;55625;47.072;22.192;2022-10-01T04:58:23;10.20;;;2.70;;
68633;SDS011;55625;47.072;22.192;2022-10-01T05:00:48;8.33;;;3.10;;
68633;SDS011;55625;47.072;22.192;2022-10-01T05:03:15;8.85;;;3.08;;
68633;SDS011;55625;47.072;22.192;2022-10-01T05:05:42;9.32;;;3.45;;
68633;SDS011;55625;47.072;22.192;2022-10-01T05:08:08;9.27;;;3.50;;
68633;SDS011;55625;47.072;22.192;2022-10-01T05:10:34;5.87;;;2.57;;
68633;SDS011;55625;47.072;22.192;2022-10-01T05:13:00;6.13;;;3.13;;
68633;SDS011;55625;47.072;22.192;2022-10-01T05:15:26;8.07;;;2.85;;
68633;SDS011;55625;47.072;22.192;2022-10-01T05:17:53;8.95;;;3.65;;
68633;SDS011;55625;47.072;22.192;2022-10-01T05:20:20;84.07;;;21.43;;
68633;SDS011;55625;47.072;22.192;2022-10-01T05:22:50;93.00;;;23.13;;
68633;SDS011;55625;47.072;22.192;2022-10-01T05:25:17;106.35;;;24.88;;
68633;SDS011;55625;47.072;22.192;2022-10-01T05:27:44;49.72;;;13.50;;
68633;SDS011;55625;47.072;22.192;2022-10-01T05:30:10;28.52;;;8.82;;
68633;SDS011;55625;47.072;22.192;2022-10-01T05:32:38;10.80;;;4.53;;
68633;SDS011;55625;47.072;22.192;2022-10-01T05:35:05;8.75;;;3.85;;
68633;SDS011;55625;47.072;22.192;2022-10-01T05:37:32;6.97;;;2.67;;
68633;SDS011;55625;47.072;22.192;2022-10-01T05:39:59;8.07;;;3.08;;
68633;SDS011;55625;47.072;22.192;2022-10-01T05:42:25;7.22;;;3.58;;
68633;SDS011;55625;47.072;22.192;2022-10-01T05:44:51;10.57;;;4.07;;
68633;SDS011;55625;47.072;22.192;2022-10-01T05:47:17;8.77;;;3.78;;
68633;SDS011;55625;47.072;22.192;2022-10-01T05:49:44;7.85;;;4.28;;
68633;SDS011;55625;47.072;22.192;2022-10-01T05:52:10;11.80;;;3.27;;
68633;SDS011;55625;47.072;22.192;2022-10-01T05:54:37;10.75;;;3.90;;
68633;SDS011;55625;47.072;22.192;2022-10-01T05:57:03;9.70;;;3.97;;
68633;SDS011;55625;47.072;22.192;2022-10-01T05:59:30;8.05;;;3.90;;
68633;SDS011;55625;47.072;22.192;2022-10-01T06:01:56;9.80;;;4.27;;
68633;SDS011;55625;47.072;22.192;2022-10-01T06:04:22;10.33;;;4.17;;
68633;SDS011;55625;47.072;22.192;2022-10-01T06:06:47;11.25;;;4.65;;
68633;SDS011;55625;47.072;22.192;2022-10-01T06:09:13;11.17;;;4.80;;
68633;SDS011;55625;47.072;22.192;2022-10-01T06:11:39;9.90;;;4.28;;
68633;SDS011;55625;47.072;22.192;2022-10-01T06:14:06;9.43;;;3.80;;
68633;SDS011;55625;47.072;22.192;2022-10-01T06:16:32;11.98;;;3.58;;
68633;SDS011;55625;47.072;22.192;2022-10-01T06:18:58;13.07;;;4.65;;
68633;SDS011;55625;47.072;22.192;2022-10-01T06:21:24;8.97;;;2.70;;
68633;SDS011;55625;47.072;22.192;2022-10-01T06:23:51;8.98;;;3.80;;
68633;SDS011;55625;47.072;22.192;2022-10-01T06:26:17;9.32;;;3.45;;
68633;SDS011;55625;47.072;22.192;2022-10-01T06:28:44;10.27;;;4.22;;
68633;SDS011;55625;47.072;22.192;2022-10-01T06:31:14;10.93;;;5.20;;
68633;SDS011;55625;47.072;22.192;2022-10-01T06:33:41;14.23;;;5.00;;
68633;SDS011;55625;47.072;22.192;2022-10-01T06:36:06;12.45;;;4.88;;
68633;SDS011;55625;47.072;22.192;2022-10-01T06:38:32;13.63;;;5.57;;
68633;SDS011;55625;47.072;22.192;2022-10-01T06:40:59;12.57;;;5.60;;
68633;SDS011;55625;47.072;22.192;2022-10-01T06:43:27;19.00;;;6.45;;
68633;SDS011;55625;47.072;22.192;2022-10-01T06:45:55;14.32;;;6.50;;
68633;SDS011;55625;47.072;22.192;2022-10-01T06:48:24;17.42;;;6.55;;
68633;SDS011;55625;47.072;22.192;2022-10-01T06:50:50;8.10;;;4.23;;
68633;SDS011;55625;47.072;22.192;2022-10-01T06:53:17;12.30;;;4.45;;
68633;SDS011;55625;47.072;22.192;2022-10-01T06:55:43;10.00;;;3.55;;
68633;SDS011;55625;47.072;22.192;2022-10-01T06:58:14;12.30;;;4.53;;
68633;SDS011;55625;47.072;22.192;2022-10-01T07:00:42;7.38;;;4.20;;
68633;SDS011;55625;47.072;22.192;2022-10-01T07:03:13;10.70;;;4.60;;
68633;SDS011;55625;47.072;22.192;2022-10-01T07:05:42;13.07;;;4.50;;
68633;SDS011;55625;47.072;22.192;2022-10-01T07:08:08;9.82;;;4.60;;
68633;SDS011;55625;47.072;22.192;2022-10-01T07:10:34;7.90;;;3.30;;
68633;SDS011;55625;47.072;22.192;2022-10-01T07:13:05;8.63;;;3.45;;
68633;SDS011;55625;47.072;22.192;2022-10-01T07:15:35;10.93;;;4.77;;
68633;SDS011;55625;47.072;22.192;2022-10-01T07:18:02;13.73;;;5.65;;
68633;SDS011;55625;47.072;22.192;2022-10-01T07:20:29;20.40;;;7.05;;
68633;SDS011;55625;47.072;22.192;2022-10-01T07:22:59;46.85;;;12.05;;
68633;SDS011;55625;47.072;22.192;2022-10-01T07:25:26;25.67;;;8.23;;
68633;SDS011;55625;47.072;22.192;2022-10-01T07:27:53;21.03;;;7.13;;
68633;SDS011;55625;47.072;22.192;2022-10-01T07:30:21;16.63;;;6.13;;
68633;SDS011;55625;47.072;22.192;2022-10-01T07:32:48;18.75;;;5.55;;
68633;SDS011;55625;47.072;22.192;2022-10-01T07:35:14;13.75;;;4.70;;
68633;SDS011;55625;47.072;22.192;2022-10-01T07:37:40;15.60;;;5.28;;
68633;SDS011;55625;47.072;22.192;2022-10-01T07:40:06;11.90;;;4.00;;
68633;SDS011;55625;47.072;22.192;2022-10-01T07:42:32;11.68;;;2.88;;
68633;SDS011;55625;47.072;22.192;2022-10-01T07:44:59;10.35;;;3.28;;
68633;SDS011;55625;47.072;22.192;2022-10-01T07:47:28;10.82;;;2.53;;
68633;SDS011;55625;47.072;22.192;2022-10-01T07:49:54;27.23;;;5.83;;
68633;SDS011;55625;47.072;22.192;2022-10-01T07:52:20;27.10;;;6.53;;
68633;SDS011;55625;47.072;22.192;2022-10-01T07:54:45;26.38;;;8.88;;
68633;SDS011;55625;47.072;22.192;2022-10-01T07:57:12;9.60;;;3.13;;
68633;SDS011;55625;47.072;22.192;2022-10-01T07:59:39;14.27;;;8.67;;
68633;SDS011;55625;47.072;22.192;2022-10-01T08:02:12;7.07;;;3.38;;
68633;SDS011;55625;47.072;22.192;2022-10-01T08:04:40;5.47;;;2.50;;
68633;SDS011;55625;47.072;22.192;2022-10-01T08:07:25;4.25;;;1.38;;
68633;SDS011;55625;47.072;22.192;2022-10-01T08:09:51;6.25;;;1.98;;
68633;SDS011;55625;47.072;22.192;2022-10-01T08:12:17;6.90;;;1.63;;
68633;SDS011;55625;47.072;22.192;2022-10-01T08:14:43;6.43;;;1.98;;
68633;SDS011;55625;47.072;22.192;2022-10-01T08:17:11;3.30;;;1.35;;
68633;SDS011;55625;47.072;22.192;2022-10-01T08:19:38;6.13;;;1.83;;
68633;SDS011;55625;47.072;22.192;2022-10-01T08:22:04;5.83;;;1.33;;
68633;SDS011;55625;47.072;22.192;2022-10-01T08:24:31;5.47;;;1.67;;
68633;SDS011;55625;47.072;22.192;2022-10-01T08:27:00;6.57;;;1.50;;
68633;SDS011;55625;47.072;22.192;2022-10-01T08:29:26;3.47;;;1.55;;
68633;SDS011;55625;47.072;22.192;2022-10-01T08:31:52;3.93;;;1.83;;
68633;SDS011;55625;47.072;22.192;2022-10-01T08:34:18;3.40;;;1.75;;
68633;SDS011;55625;47.072;22.192;2022-10-01T08:36:44;7.97;;;2.05;;
68633;SDS011;55625;47.072;22.192;2022-10-01T08:39:14;4.95;;;1.25;;
68633;SDS011;55625;47.072;22.192;2022-10-01T08:44:46;4.97;;;1.65;;
68633;SDS011;55625;47.072;22.192;2022-10-01T08:47:16;3.50;;;1.92;;
68633;SDS011;55625;47.072;22.192;2022-10-01T08:49:54;5.00;;;0.95;;
68633;SDS011;55625;47.072;22.192;2022-10-01T08:52:31;4.20;;;1.23;;
68633;SDS011;55625;47.072;22.192;2022-10-01T08:55:04;4.53;;;1.40;;
68633;SDS011;55625;47.072;22.192;2022-10-01T08:57:42;4.30;;;1.23;;
68633;SDS011;55625;47.072;22.192;2022-10-01T09:00:22;5.22;;;1.05;;
68633;SDS011;55625;47.072;22.192;2022-10-01T09:02:49;3.47;;;1.63;;
68633;SDS011;55625;47.072;22.192;2022-10-01T09:05:24;5.23;;;1.47;;
68633;SDS011;55625;47.072;22.192;2022-10-01T09:08:57;4.20;;;2.03;;
68633;SDS011;55625;47.072;22.192;2022-10-01T09:15:02;4.97;;;1.95;;
68633;SDS011;55625;47.072;22.192;2022-10-01T09:20:44;6.57;;;1.83;;
68633;SDS011;55625;47.072;22.192;2022-10-01T09:25:51;7.20;;;1.08;;
68633;SDS011;55625;47.072;22.192;2022-10-01T09:28:24;2.78;;;1.05;;
68633;SDS011;55625;47.072;22.192;2022-10-01T09:31:16;4.80;;;0.75;;
68633;SDS011;55625;47.072;22.192;2022-10-01T09:34:05;3.93;;;1.23;;
68633;SDS011;55625;47.072;22.192;2022-10-01T09:36:43;3.92;;;1.50;;
68633;SDS011;55625;47.072;22.192;2022-10-01T09:39:26;4.53;;;1.75;;
68633;SDS011;55625;47.072;22.192;2022-10-01T09:42:06;3.78;;;1.40;;
68633;SDS011;55625;47.072;22.192;2022-10-01T09:44:32;6.15;;;1.80;;
68633;SDS011;55625;47.072;22.192;2022-10-01T09:46:59;4.60;;;1.57;;
68633;SDS011;55625;47.072;22.192;2022-10-01T09:49:36;2.85;;;1.30;;
68633;SDS011;55625;47.072;22.192;2022-10-01T09:52:13;4.47;;;1.73;;
68633;SDS011;55625;47.072;22.192;2022-10-01T09:54:57;4.95;;;1.70;;
68633;SDS011;55625;47.072;22.192;2022-10-01T09:57:46;3.38;;;1.38;;
68633;SDS011;55625;47.072;22.192;2022-10-01T10:00:28;5.83;;;1.43;;
68633;SDS011;55625;47.072;22.192;2022-10-01T10:02:55;5.22;;;1.13;;
68633;SDS011;55625;47.072;22.192;2022-10-01T10:05:22;4.65;;;1.55;;
68633;SDS011;55625;47.072;22.192;2022-10-01T10:07:56;5.55;;;2.00;;
68633;SDS011;55625;47.072;22.192;2022-10-01T10:10:33;4.10;;;1.60;;
68633;SDS011;55625;47.072;22.192;2022-10-01T10:15:36;5.32;;;1.67;;
68633;SDS011;55625;47.072;22.192;2022-10-01T10:18:12;6.30;;;1.20;;
68633;SDS011;55625;47.072;22.192;2022-10-01T10:20:42;3.85;;;1.50;;
68633;SDS011;55625;47.072;22.192;2022-10-01T10:23:19;3.20;;;1.23;;
68633;SDS011;55625;47.072;22.192;2022-10-01T10:25:53;4.70;;;1.57;;
68633;SDS011;55625;47.072;22.192;2022-10-01T10:28:25;6.07;;;1.45;;
68633;SDS011;55625;47.072;22.192;2022-10-01T10:30:53;5.57;;;1.67;;
68633;SDS011;55625;47.072;22.192;2022-10-01T10:33:24;4.72;;;2.03;;
68633;SDS011;55625;47.072;22.192;2022-10-01T10:35:58;5.10;;;1.02;;
68633;SDS011;55625;47.072;22.192;2022-10-01T10:38:36;3.93;;;1.10;;
68633;SDS011;55625;47.072;22.192;2022-10-01T10:41:02;3.78;;;1.77;;
68633;SDS011;55625;47.072;22.192;2022-10-01T10:43:30;5.78;;;2.13;;
68633;SDS011;55625;47.072;22.192;2022-10-01T10:46:01;4.18;;;1.50;;
68633;SDS011;55625;47.072;22.192;2022-10-01T10:48:30;4.03;;;1.17;;
68633;SDS011;55625;47.072;22.192;2022-10-01T10:51:03;5.73;;;2.03;;
68633;SDS011;55625;47.072;22.192;2022-10-01T10:53:43;4.43;;;1.38;;
68633;SDS011;55625;47.072;22.192;2022-10-01T10:56:17;5.25;;;1.52;;
68633;SDS011;55625;47.072;22.192;2022-10-01T10:58:49;4.45;;;1.63;;
68633;SDS011;55625;47.072;22.192;2022-10-01T11:01:16;5.82;;;2.15;;
68633;SDS011;55625;47.072;22.192;2022-10-01T11:03:52;6.43;;;1.37;;
68633;SDS011;55625;47.072;22.192;2022-10-01T11:06:22;3.65;;;1.67;;
68633;SDS011;55625;47.072;22.192;2022-10-01T11:08:55;5.88;;;2.20;;
68633;SDS011;55625;47.072;22.192;2022-10-01T11:11:34;3.70;;;1.40;;
68633;SDS011;55625;47.072;22.192;2022-10-01T11:31:44;13.10;;;2.97;;
68633;SDS011;55625;47.072;22.192;2022-10-01T11:40:44;10.00;;;2.05;;
68633;SDS011;55625;47.072;22.192;2022-10-01T11:43:29;5.15;;;2.63;;
68633;SDS011;55625;47.072;22.192;2022-10-01T11:46:51;4.83;;;2.60;;
68633;SDS011;55625;47.072;22.192;2022-10-01T11:51:58;5.70;;;2.47;;
68633;SDS011;55625;47.072;22.192;2022-10-01T11:54:57;9.98;;;2.60;;
68633;SDS011;55625;47.072;22.192;2022-10-01T11:58:05;5.43;;;3.00;;
68633;SDS011;55625;47.072;22.192;2022-10-01T12:06:18;7.32;;;3.45;;
68633;SDS011;55625;47.072;22.192;2022-10-01T12:09:07;8.60;;;2.78;;
68633;SDS011;55625;47.072;22.192;2022-10-01T12:14:36;19.17;;;4.05;;
68633;SDS011;55625;47.072;22.192;2022-10-01T12:17:24;10.90;;;4.03;;
68633;SDS011;55625;47.072;22.192;2022-10-01T12:20:30;9.90;;;3.45;;
68633;SDS011;55625;47.072;22.192;2022-10-01T12:23:04;7.63;;;3.13;;
68633;SDS011;55625;47.072;22.192;2022-10-01T12:28:36;9.75;;;3.85;;
68633;SDS011;55625;47.072;22.192;2022-10-01T12:34:24;7.65;;;3.70;;
68633;SDS011;55625;47.072;22.192;2022-10-01T12:49:07;7.57;;;3.42;;
68633;SDS011;55625;47.072;22.192;2022-10-01T13:09:37;4.93;;;2.63;;
68633;SDS011;55625;47.072;22.192;2022-10-01T13:15:23;12.82;;;3.67;;
68633;SDS011;55625;47.072;22.192;2022-10-01T13:26:43;17.05;;;5.40;;
68633;SDS011;55625;47.072;22.192;2022-10-01T13:29:31;13.25;;;4.72;;
68633;SDS011;55625;47.072;22.192;2022-10-01T13:32:23;13.45;;;4.07;;
68633;SDS011;55625;47.072;22.192;2022-10-01T13:35:34;10.63;;;3.97;;
68633;SDS011;55625;47.072;22.192;2022-10-01T13:38:25;10.47;;;3.57;;
68633;SDS011;55625;47.072;22.192;2022-10-01T13:41:00;6.82;;;3.28;;
68633;SDS011;55625;47.072;22.192;2022-10-01T13:43:29;6.68;;;2.70;;
68633;SDS011;55625;47.072;22.192;2022-10-01T13:46:05;8.60;;;3.40;;
68633;SDS011;55625;47.072;22.192;2022-10-01T13:48:36;7.35;;;3.08;;
68633;SDS011;55625;47.072;22.192;2022-10-01T13:51:09;6.23;;;1.80;;
68633;SDS011;55625;47.072;22.192;2022-10-01T13:56:07;5.47;;;2.47;;
68633;SDS011;55625;47.072;22.192;2022-10-01T13:58:40;5.93;;;2.45;;
68633;SDS011;55625;47.072;22.192;2022-10-01T14:03:49;12.60;;;4.20;;
68633;SDS011;55625;47.072;22.192;2022-10-01T14:11:56;11.48;;;3.97;;
68633;SDS011;55625;47.072;22.192;2022-10-01T14:14:55;8.30;;;2.85;;
68633;SDS011;55625;47.072;22.192;2022-10-01T14:17:46;15.03;;;6.10;;
68633;SDS011;55625;47.072;22.192;2022-10-01T14:20:18;12.07;;;4.15;;
68633;SDS011;55625;47.072;22.192;2022-10-01T14:22:58;9.70;;;3.47;;
68633;SDS011;55625;47.072;22.192;2022-10-01T14:37:27;11.70;;;5.45;;
68633;SDS011;55625;47.072;22.192;2022-10-01T14:40:01;9.70;;;3.70;;
68633;SDS011;55625;47.072;22.192;2022-10-01T14:42:38;12.05;;;4.05;;
68633;SDS011;55625;47.072;22.192;2022-10-01T14:45:16;8.67;;;3.17;;
68633;SDS011;55625;47.072;22.192;2022-10-01T14:47:43;7.80;;;2.97;;
68633;SDS011;55625;47.072;22.192;2022-10-01T14:50:10;5.80;;;2.80;;
68633;SDS011;55625;47.072;22.192;2022-10-01T14:52:44;6.55;;;3.13;;
68633;SDS011;55625;47.072;22.192;2022-10-01T14:55:15;8.07;;;3.60;;
68633;SDS011;55625;47.072;22.192;2022-10-01T14:57:50;9.13;;;3.17;;
68633;SDS011;55625;47.072;22.192;2022-10-01T15:00:23;8.02;;;3.65;;
68633;SDS011;55625;47.072;22.192;2022-10-01T15:03:12;9.40;;;3.30;;
68633;SDS011;55625;47.072;22.192;2022-10-01T15:05:42;6.25;;;2.83;;
68633;SDS011;55625;47.072;22.192;2022-10-01T15:08:11;6.43;;;2.97;;
68633;SDS011;55625;47.072;22.192;2022-10-01T15:10:47;10.65;;;5.43;;
68633;SDS011;55625;47.072;22.192;2022-10-01T15:13:21;25.15;;;10.55;;
68633;SDS011;55625;47.072;22.192;2022-10-01T15:15:53;39.30;;;14.98;;
68633;SDS011;55625;47.072;22.192;2022-10-01T15:18:20;16.75;;;6.07;;
68633;SDS011;55625;47.072;22.192;2022-10-01T15:21:04;8.80;;;4.23;;
68633;SDS011;55625;47.072;22.192;2022-10-01T15:23:34;7.28;;;3.60;;
68633;SDS011;55625;47.072;22.192;2022-10-01T15:26:04;8.27;;;4.25;;
68633;SDS011;55625;47.072;22.192;2022-10-01T15:28:35;11.52;;;5.35;;
68633;SDS011;55625;47.072;22.192;2022-10-01T15:31:02;14.02;;;6.82;;
68633;SDS011;55625;47.072;22.192;2022-10-01T15:36:06;17.92;;;7.03;;
68633;SDS011;55625;47.072;22.192;2022-10-01T15:38:38;17.33;;;7.15;;
68633;SDS011;55625;47.072;22.192;2022-10-01T15:41:09;11.15;;;5.68;;
68633;SDS011;55625;47.072;22.192;2022-10-01T15:43:57;12.63;;;4.53;;
68633;SDS011;55625;47.072;22.192;2022-10-01T15:46:27;10.90;;;4.23;;
68633;SDS011;55625;47.072;22.192;2022-10-01T15:51:59;29.85;;;11.35;;
68633;SDS011;55625;47.072;22.192;2022-10-01T15:54:46;35.20;;;13.98;;
68633;SDS011;55625;47.072;22.192;2022-10-01T15:57:21;22.67;;;9.30;;
68633;SDS011;55625;47.072;22.192;2022-10-01T15:59:50;23.37;;;9.47;;
68633;SDS011;55625;47.072;22.192;2022-10-01T16:02:24;25.73;;;10.73;;
68633;SDS011;55625;47.072;22.192;2022-10-01T16:04:54;24.30;;;10.93;;
68633;SDS011;55625;47.072;22.192;2022-10-01T16:07:29;18.15;;;8.65;;
68633;SDS011;55625;47.072;22.192;2022-10-01T16:09:59;16.85;;;7.90;;
68633;SDS011;55625;47.072;22.192;2022-10-01T16:16:15;18.90;;;6.22;;
68633;SDS011;55625;47.072;22.192;2022-10-01T16:18:46;17.38;;;6.18;;
68633;SDS011;55625;47.072;22.192;2022-10-01T16:21:20;14.65;;;6.45;;
68633;SDS011;55625;47.072;22.192;2022-10-01T16:23:48;16.00;;;6.80;;
68633;SDS011;55625;47.072;22.192;2022-10-01T16:29:05;20.05;;;7.57;;
68633;SDS011;55625;47.072;22.192;2022-10-01T16:31:44;11.10;;;5.20;;
68633;SDS011;55625;47.072;22.192;2022-10-01T16:34:10;9.98;;;4.35;;
68633;SDS011;55625;47.072;22.192;2022-10-01T16:36:41;7.37;;;3.63;;
68633;SDS011;55625;47.072;22.192;2022-10-01T16:39:08;6.03;;;3.08;;
68633;SDS011;55625;47.072;22.192;2022-10-01T16:41:37;14.73;;;5.93;;
68633;SDS011;55625;47.072;22.192;2022-10-01T16:44:04;12.40;;;7.45;;
68633;SDS011;55625;47.072;22.192;2022-10-01T16:46:30;10.82;;;6.70;;
68633;SDS011;55625;47.072;22.192;2022-10-01T16:48:57;6.43;;;3.43;;
68633;SDS011;55625;47.072;22.192;2022-10-01T16:51:23;6.40;;;2.63;;
68633;SDS011;55625;47.072;22.192;2022-10-01T16:53:49;10.07;;;4.00;;
68633;SDS011;55625;47.072;22.192;2022-10-01T16:56:15;14.00;;;5.00;;
68633;SDS011;55625;47.072;22.192;2022-10-01T16:58:41;15.77;;;5.93;;
68633;SDS011;55625;47.072;22.192;2022-10-01T17:01:08;14.53;;;5.43;;
68633;SDS011;55625;47.072;22.192;2022-10-01T17:03:38;18.88;;;5.75;;
68633;SDS011;55625;47.072;22.192;2022-10-01T17:06:05;12.60;;;5.78;;
68633;SDS011;55625;47.072;22.192;2022-10-01T17:08:31;9.20;;;3.88;;
68633;SDS011;55625;47.072;22.192;2022-10-01T17:10:57;8.60;;;3.90;;
68633;SDS011;55625;47.072;22.192;2022-10-01T17:13:26;11.57;;;5.17;;
68633;SDS011;55625;47.072;22.192;2022-10-01T17:15:56;15.82;;;5.32;;
68633;SDS011;55625;47.072;22.192;2022-10-01T17:18:22;16.27;;;5.40;;
68633;SDS011;55625;47.072;22.192;2022-10-01T17:20:49;10.60;;;3.83;;
68633;SDS011;55625;47.072;22.192;2022-10-01T17:23:16;9.48;;;3.22;;
68633;SDS011;55625;47.072;22.192;2022-10-01T17:25:44;12.10;;;4.87;;
68633;SDS011;55625;47.072;22.192;2022-10-01T17:28:11;10.38;;;5.88;;
68633;SDS011;55625;47.072;22.192;2022-10-01T17:30:44;10.85;;;5.38;;